FZFH weather

Mokaria-Yamoleka Airport
Mokaria-Yamoleka, Orientale Province, Congo (Kinshasa)

Public forecast

Using degrees Celsius for public forecast. Weather courtesy of forecast.io.

METAR (pilot weather report)

Report is more than 6 hours old.

Closest report is Bangoka International Airport, 157.7 nm (292.0 km) SE. Retrieved 2019/02/15 14:00 UTC (1 day ago):

FZIC 151400Z 18004KT 8000 FEW044 FEW048CB 34/22 Q1009 CB/NW-N NOSIG

TAF (pilot weather forecast)

Forecast is more than 12 hours old.

Closest forecast is Bangoka International Airport, 157.7 nm (292.0 km) SE. Retrieved 2017/11/26 18:00 UTC (1 year ago):

TAF FZIC 261700Z 2618/2724 VRB04KT 5000 HZ NSC BECMG 2621/2623 2000 BR BECMG 2705/2707 12006KT 6000 SCT009 BECMG 2710/2712 FEW012 FEW024CB